KSAT - San Antonio Intl, TX, US

Issued at 2320 UTC 31 Oct 2020
Updated at 0114 UTC 01 Nov 2020
Potential Impact None Slight Moderate High
Time0051Z 01/02Z 01/03Z 01/04Z 01/05Z 01/06Z 01/07Z 01/08Z 01/09Z 01/10Z 01/11Z 01/12Z 01/13Z 01/14Z>>
Type OBS PRVL PRVL PRVL PRVL PRVL PRVL PRVL PRVL PRVL PRVL PRVL PRVL PRVL
VIS 10 >6 >6 >6 >6 >6 >6 >6 >6 >6 >6 >6 >6 >6
CIG -- -- -- -- -- -- -- -- -- -- -- -- -- --
Cover SCT FEW FEW FEW FEW FEW FEW FEW FEW FEW FEW FEW FEW FEW
FltCat VFR VFR VFR VFR VFR VFR VFR VFR VFR VFR VFR VFR VFR VFR
WX -- -- -- -- -- -- -- -- -- -- -- -- -- --
WDir 160 170 170 170 170 170 170 170 170 170 170 170 170 170
WSpd 4 4 4 4 4 4 4 4 4 4 4 4 4 4
WGst -- -- -- -- -- -- -- -- -- -- -- -- -- --
Raw TAF
KSAT 312320Z 0100/0206 17004KT P6SM FEW250
  FM011600 02015KT P6SM SCT250
  FM020200 03008KT P6SM SCT250


Raw METAR
KSAT 010051Z 16004KT 10SM SCT250 19/05 A3013 RMK AO2 SLP193 T01890050
KSAT 312351Z 18004KT 10SM SCT250 22/04 A3011 RMK AO2 SLP183 T02220044 10250 20206 55003
KSAT 312251Z 16005KT 10SM FEW250 24/04 A3009 RMK AO2 SLP179 T02440039

METAR Board
Radar Display
Forecast Discussion
For situational awareness. Not to be used for flight planning purposes.